Loei, Thailand

10:04 AM ICT on July 24, 2016 (GMT +0700)
Loei | | Change Station

Elev 833 ft 17.45 °N, 101.73 °E | Updated 1 hour ago

Partly Cloudy
Partly Cloudy
79 °F
Feels Like 79 °F
N
2
Wind Variable Wind from Variable

Today
High -- | Low -- °F
--% Chance of Precip.
Yesterday
High -- | Low -- °F
Precip. -- in
Pressure 29.89 in
Visibility 6.2 miles
Clouds Few 1200 ft
Few 3200 ft
Dew Point 75 °F
Humidity 89%
Rainfall 0.00 in
Snow Depth Not available.
5:49 AM 6:49 PM
Waning Gibbous, 80% visible
METAR VTUL 240200Z VRB02KT 9999 FEW012 FEW032 26/24 Q1012
Pressure 29.89 in
Visibility 6.2 miles
Clouds Few 1200 ft
Few 3200 ft
Dew Point 75 °F
Humidity 89%
Rainfall 0.00 in
Snow Depth Not available.
5:49 AM 6:49 PM
Waning Gibbous, 80% visible
METAR VTUL 240200Z VRB02KT 9999 FEW012 FEW032 26/24 Q1012

10-Day Weather Forecast

No radar image for this location.
×

Almanac

Astronomy

Jul. 24, 2016 Rise Set
Actual Time
Civil Twilight
Nautical Twilight
Astronomical Twilight
Moon
Length of Visible Light
Length of Day
Tomorrow will be .
, % of the Moon is Illuminated

Today's Extremes

Country Highs Country Lows

Community

WunderPhotos

Upload Photos

1,927,016 photos uploaded!

WunderBlog® & News

Nearby

Air Quality

  Air Quality AQ Index Pollutant
Not available.

Snow Depth

Station Depth Elevation

Earthquake Activity

City Distance Mag. Time & Date
Minimum magnitude displayed is 2.5.

Coastal Water Temperatures

Place Temperature

Stations

Nearby Weather Stations

Station Location Temp. Windchill Dew Point Humidity Wind Precip. Elev Updated Type